AAL56 KDFW-KLAX
Flight info
| Callsign | AAL56 |
|---|---|
| Flight time | 1h 34m |
| Altitude | 38000 |
| Route | KATZZ2 BRHMA CNX ONM SJN DRK J231 HIPPI GABBL HLYWD1 |
| Aircraft | B77W/H-SDE1E2E3FGHIJ2J3J4J5M1RWXY/LB1D1 |
Departure
| Time | 2026-04-26 20:35 |
|---|---|
| Airport | Dallas Fort Worth International Airport (KDFW) |
Arrival
| Time | 2026-04-26 22:09 |
|---|---|
| Airport | Los Angeles International Airport (KLAX) |
| Time | Latitude | Longitude | Altitude | Speed | Heading |
|---|---|---|---|---|---|
| 2026-04-26 19:55 | 32.89918 | -97.04588 | 434 ft | 0 kts | 94° |
| 2026-04-26 19:56 | 32.89830 | -97.04587 | 601 ft | 0 kts | 94° |
| 2026-04-26 20:22 | 32.89830 | -97.04594 | 601 ft | 3 kts | 94° |
| 2026-04-26 20:23 | 32.89831 | -97.04617 | 601 ft | 3 kts | 94° |
| 2026-04-26 20:23 | 32.89833 | -97.04639 | 601 ft | 3 kts | 94° |
| 2026-04-26 20:23 | 32.89834 | -97.04662 | 601 ft | 3 kts | 94° |
| 2026-04-26 20:23 | 32.89836 | -97.04684 | 601 ft | 3 kts | 94° |
| 2026-04-26 20:24 | 32.89837 | -97.04706 | 601 ft | 3 kts | 94° |
| 2026-04-26 20:24 | 32.89838 | -97.04728 | 601 ft | 3 kts | 94° |
| 2026-04-26 20:24 | 32.89840 | -97.04749 | 602 ft | 2 kts | 94° |
| 2026-04-26 20:24 | 32.89841 | -97.04770 | 602 ft | 2 kts | 94° |
| 2026-04-26 20:25 | 32.89841 | -97.04777 | 602 ft | 0 kts | 94° |
| 2026-04-26 20:28 | 32.89844 | -97.04764 | 602 ft | 3 kts | 70° |
| 2026-04-26 20:29 | 32.89877 | -97.04749 | 602 ft | 8 kts | 349° |
| 2026-04-26 20:29 | 32.89953 | -97.04767 | 618 ft | 13 kts | 356° |
| 2026-04-26 20:29 | 32.90042 | -97.04766 | 614 ft | 17 kts | 0° |
| 2026-04-26 20:29 | 32.90159 | -97.04765 | 612 ft | 15 kts | 1° |
| 2026-04-26 20:30 | 32.90272 | -97.04764 | 612 ft | 16 kts | 360° |
| 2026-04-26 20:30 | 32.90381 | -97.04765 | 623 ft | 16 kts | 0° |
| 2026-04-26 20:30 | 32.90490 | -97.04764 | 617 ft | 16 kts | 0° |
| 2026-04-26 20:30 | 32.90599 | -97.04763 | 616 ft | 16 kts | 0° |
| 2026-04-26 20:31 | 32.90708 | -97.04761 | 614 ft | 16 kts | 1° |
| 2026-04-26 20:31 | 32.90817 | -97.04760 | 618 ft | 16 kts | 0° |
| 2026-04-26 20:31 | 32.90939 | -97.04759 | 618 ft | 18 kts | 360° |
| 2026-04-26 20:31 | 32.91057 | -97.04792 | 619 ft | 18 kts | 353° |
| 2026-04-26 20:32 | 32.91187 | -97.04793 | 629 ft | 19 kts | 0° |
| 2026-04-26 20:32 | 32.91319 | -97.04793 | 622 ft | 21 kts | 0° |
| 2026-04-26 20:32 | 32.91453 | -97.04792 | 621 ft | 16 kts | 0° |
| 2026-04-26 20:32 | 32.91529 | -97.04794 | 621 ft | 11 kts | 352° |
| 2026-04-26 20:33 | 32.91563 | -97.04865 | 627 ft | 11 kts | 273° |
| 2026-04-26 20:33 | 32.91567 | -97.04954 | 624 ft | 11 kts | 270° |
| 2026-04-26 20:33 | 32.91566 | -97.05041 | 623 ft | 10 kts | 258° |
| 2026-04-26 20:33 | 32.91507 | -97.05074 | 624 ft | 10 kts | 188° |
| 2026-04-26 20:34 | 32.91438 | -97.05078 | 625 ft | 10 kts | 179° |
| 2026-04-26 20:34 | 32.91296 | -97.05076 | 625 ft | 41 kts | 180° |
| 2026-04-26 20:34 | 32.90730 | -97.05079 | 617 ft | 119 kts | 180° |
| 2026-04-26 20:34 | 32.89691 | -97.05102 | 685 ft | 171 kts | 182° |
| 2026-04-26 20:35 | 32.88472 | -97.05113 | 1350 ft | 174 kts | 180° |
| 2026-04-26 20:35 | 32.87262 | -97.05100 | 2112 ft | 178 kts | 181° |
| 2026-04-26 20:35 | 32.85975 | -97.05093 | 2746 ft | 179 kts | 180° |
| 2026-04-26 20:35 | 32.84776 | -97.05106 | 3646 ft | 172 kts | 181° |
| 2026-04-26 20:36 | 32.83568 | -97.05128 | 4424 ft | 172 kts | 181° |
| 2026-04-26 20:36 | 32.82449 | -97.05150 | 4889 ft | 184 kts | 182° |
| 2026-04-26 20:36 | 32.81036 | -97.05196 | 4966 ft | 223 kts | 187° |
| 2026-04-26 20:36 | 32.79583 | -97.05983 | 5355 ft | 245 kts | 227° |
| 2026-04-26 20:37 | 32.78860 | -97.07803 | 6328 ft | 249 kts | 261° |
| 2026-04-26 20:37 | 32.78800 | -97.09826 | 7366 ft | 249 kts | 266° |
| 2026-04-26 20:37 | 32.78782 | -97.11968 | 8051 ft | 265 kts | 267° |
| 2026-04-26 20:37 | 32.78768 | -97.14175 | 8989 ft | 269 kts | 267° |
| 2026-04-26 20:38 | 32.78754 | -97.16378 | 9975 ft | 272 kts | 267° |
| 2026-04-26 20:38 | 32.78735 | -97.18635 | 10770 ft | 282 kts | 267° |
| 2026-04-26 20:38 | 32.78708 | -97.21119 | 11060 ft | 312 kts | 268° |
| 2026-04-26 20:38 | 32.78673 | -97.23818 | 11291 ft | 342 kts | 268° |
| 2026-04-26 20:39 | 32.78633 | -97.26737 | 11931 ft | 357 kts | 268° |
| 2026-04-26 20:39 | 32.78606 | -97.28702 | 12557 ft | 360 kts | 268° |
| 2026-04-26 20:39 | 32.78548 | -97.32680 | 13895 ft | 364 kts | 269° |
| 2026-04-26 20:39 | 32.78501 | -97.35698 | 14864 ft | 366 kts | 269° |
| 2026-04-26 20:40 | 32.78452 | -97.38720 | 15817 ft | 369 kts | 268° |
| 2026-04-26 20:40 | 32.78401 | -97.41815 | 16720 ft | 373 kts | 268° |
| 2026-04-26 20:40 | 32.78349 | -97.44844 | 17019 ft | 376 kts | 268° |
| 2026-04-26 20:40 | 32.78294 | -97.48005 | 17001 ft | 377 kts | 268° |
| 2026-04-26 20:41 | 32.78239 | -97.51104 | 17001 ft | 376 kts | 268° |
| 2026-04-26 20:41 | 32.78184 | -97.54199 | 17005 ft | 375 kts | 268° |
| 2026-04-26 20:41 | 32.78127 | -97.57336 | 17329 ft | 380 kts | 268° |
| 2026-04-26 20:41 | 32.78069 | -97.60466 | 18222 ft | 382 kts | 268° |
| 2026-04-26 20:42 | 32.78011 | -97.63618 | 19067 ft | 384 kts | 268° |
| 2026-04-26 20:42 | 32.77951 | -97.66808 | 19973 ft | 388 kts | 268° |
| 2026-04-26 20:42 | 32.77913 | -97.70012 | 20711 ft | 393 kts | 271° |
| 2026-04-26 20:42 | 32.78130 | -97.73300 | 21432 ft | 399 kts | 276° |
| 2026-04-26 20:43 | 32.78573 | -97.76577 | 22169 ft | 404 kts | 281° |
| 2026-04-26 20:43 | 32.79254 | -97.79764 | 22886 ft | 409 kts | 284° |
| 2026-04-26 20:43 | 32.80046 | -97.83114 | 23590 ft | 413 kts | 284° |
| 2026-04-26 20:43 | 32.80839 | -97.86415 | 24205 ft | 416 kts | 284° |
| 2026-04-26 20:44 | 32.81633 | -97.89733 | 24807 ft | 417 kts | 284° |
| 2026-04-26 20:44 | 32.82422 | -97.93063 | 25497 ft | 418 kts | 283° |
| 2026-04-26 20:44 | 32.83207 | -97.96398 | 26159 ft | 420 kts | 283° |
| 2026-04-26 20:44 | 32.83981 | -97.99713 | 26759 ft | 422 kts | 283° |
| 2026-04-26 20:45 | 32.84777 | -98.03135 | 27343 ft | 425 kts | 283° |
| 2026-04-26 20:45 | 32.85567 | -98.06536 | 27920 ft | 428 kts | 283° |
| 2026-04-26 20:45 | 32.86359 | -98.09951 | 28457 ft | 430 kts | 283° |
| 2026-04-26 20:45 | 32.87145 | -98.13346 | 28965 ft | 433 kts | 283° |
| 2026-04-26 20:46 | 32.87953 | -98.16834 | 29450 ft | 435 kts | 282° |
| 2026-04-26 20:46 | 32.88749 | -98.20278 | 29919 ft | 436 kts | 282° |
| 2026-04-26 20:46 | 32.89555 | -98.23766 | 30405 ft | 435 kts | 282° |
| 2026-04-26 20:46 | 32.90356 | -98.27235 | 30918 ft | 433 kts | 283° |
| 2026-04-26 20:47 | 32.91149 | -98.30668 | 31445 ft | 431 kts | 283° |
| 2026-04-26 20:47 | 32.91676 | -98.32954 | 31751 ft | 431 kts | 283° |
| 2026-04-26 20:47 | 32.92740 | -98.37580 | 31752 ft | 433 kts | 283° |
| 2026-04-26 20:48 | 32.94317 | -98.44443 | 31754 ft | 429 kts | 283° |
| 2026-04-26 20:48 | 32.95888 | -98.51304 | 31766 ft | 430 kts | 283° |
| 2026-04-26 20:49 | 32.97464 | -98.58210 | 32174 ft | 432 kts | 282° |
| 2026-04-26 20:49 | 32.98249 | -98.61654 | 32759 ft | 428 kts | 282° |
| 2026-04-26 20:49 | 32.99025 | -98.65061 | 33379 ft | 423 kts | 282° |
| 2026-04-26 20:49 | 32.99792 | -98.68430 | 33921 ft | 420 kts | 282° |
| 2026-04-26 20:50 | 33.00552 | -98.71778 | 34358 ft | 417 kts | 282° |
| 2026-04-26 20:50 | 33.01297 | -98.75064 | 34778 ft | 414 kts | 282° |
| 2026-04-26 20:50 | 33.01800 | -98.77289 | 35057 ft | 412 kts | 282° |
| 2026-04-26 20:50 | 33.02785 | -98.81645 | 35610 ft | 409 kts | 282° |
| 2026-04-26 20:51 | 33.03528 | -98.84938 | 36020 ft | 406 kts | 282° |
| 2026-04-26 20:51 | 33.04250 | -98.88141 | 36372 ft | 404 kts | 282° |
| 2026-04-26 20:51 | 33.04974 | -98.91358 | 36722 ft | 402 kts | 282° |
| 2026-04-26 20:51 | 33.05698 | -98.94577 | 37066 ft | 400 kts | 282° |
| 2026-04-26 20:52 | 33.06415 | -98.97769 | 37429 ft | 397 kts | 282° |
| 2026-04-26 20:52 | 33.07130 | -99.00960 | 37638 ft | 398 kts | 282° |
| 2026-04-26 20:52 | 33.07844 | -99.04156 | 37688 ft | 401 kts | 282° |
| 2026-04-26 20:53 | 33.09278 | -99.10568 | 37695 ft | 399 kts | 282° |
| 2026-04-26 20:53 | 33.10694 | -99.16913 | 37699 ft | 394 kts | 282° |
| 2026-04-26 20:54 | 33.12092 | -99.23203 | 37702 ft | 393 kts | 281° |
| 2026-04-26 20:54 | 33.13485 | -99.29487 | 37696 ft | 393 kts | 281° |
| 2026-04-26 20:55 | 33.14884 | -99.35813 | 37692 ft | 394 kts | 281° |
| 2026-04-26 20:55 | 33.16054 | -99.41114 | 37691 ft | 395 kts | 281° |
| 2026-04-26 20:56 | 33.17441 | -99.47414 | 37692 ft | 396 kts | 281° |
| 2026-04-26 20:56 | 33.18840 | -99.53786 | 37677 ft | 397 kts | 281° |
| 2026-04-26 20:57 | 33.20241 | -99.60174 | 37693 ft | 398 kts | 281° |
| 2026-04-26 20:57 | 33.21681 | -99.66554 | 37689 ft | 398 kts | 281° |
| 2026-04-26 20:58 | 33.23137 | -99.72939 | 37690 ft | 398 kts | 281° |
| 2026-04-26 20:58 | 33.24588 | -99.79332 | 37690 ft | 398 kts | 281° |
| 2026-04-26 20:59 | 33.26022 | -99.85683 | 37679 ft | 398 kts | 281° |
| 2026-04-26 20:59 | 33.27461 | -99.92077 | 37682 ft | 397 kts | 281° |
| 2026-04-26 21:00 | 33.28892 | -99.98452 | 37681 ft | 397 kts | 281° |
| 2026-04-26 21:00 | 33.30310 | -100.04788 | 37669 ft | 397 kts | 281° |
| 2026-04-26 21:01 | 33.31729 | -100.11148 | 37679 ft | 397 kts | 281° |
| 2026-04-26 21:01 | 33.33151 | -100.17532 | 37669 ft | 397 kts | 281° |
| 2026-04-26 21:02 | 33.34533 | -100.23753 | 37656 ft | 396 kts | 281° |
| 2026-04-26 21:02 | 33.35948 | -100.30147 | 37647 ft | 396 kts | 281° |
| 2026-04-26 21:03 | 33.37348 | -100.36484 | 37645 ft | 397 kts | 280° |
| 2026-04-26 21:03 | 33.38766 | -100.42915 | 37661 ft | 397 kts | 280° |
| 2026-04-26 21:04 | 33.40163 | -100.49277 | 37649 ft | 398 kts | 280° |
| 2026-04-26 21:04 | 33.41566 | -100.55677 | 37653 ft | 398 kts | 280° |
| 2026-04-26 21:05 | 33.42968 | -100.62093 | 37646 ft | 399 kts | 280° |
| 2026-04-26 21:05 | 33.44370 | -100.68524 | 37647 ft | 399 kts | 280° |
| 2026-04-26 21:06 | 33.45769 | -100.74955 | 37642 ft | 399 kts | 280° |
| 2026-04-26 21:06 | 33.47167 | -100.81403 | 37648 ft | 399 kts | 280° |
| 2026-04-26 21:07 | 33.48560 | -100.87846 | 37648 ft | 399 kts | 279° |
| 2026-04-26 21:07 | 33.49947 | -100.94280 | 37647 ft | 399 kts | 279° |
| 2026-04-26 21:08 | 33.51333 | -101.00721 | 37654 ft | 398 kts | 279° |
| 2026-04-26 21:08 | 33.52689 | -101.07105 | 37649 ft | 397 kts | 279° |
| 2026-04-26 21:09 | 33.53997 | -101.13561 | 37642 ft | 396 kts | 279° |
| 2026-04-26 21:09 | 33.55273 | -101.19924 | 37646 ft | 394 kts | 278° |
| 2026-04-26 21:10 | 33.56346 | -101.25270 | 37648 ft | 393 kts | 278° |
| 2026-04-26 21:10 | 33.57760 | -101.32321 | 37638 ft | 392 kts | 278° |
| 2026-04-26 21:11 | 33.59031 | -101.38668 | 37625 ft | 391 kts | 278° |
| 2026-04-26 21:11 | 33.60301 | -101.45022 | 37652 ft | 391 kts | 278° |
| 2026-04-26 21:12 | 33.61566 | -101.51377 | 37680 ft | 391 kts | 278° |
| 2026-04-26 21:12 | 33.62828 | -101.57729 | 37699 ft | 392 kts | 278° |
| 2026-04-26 21:13 | 33.64081 | -101.64053 | 37737 ft | 393 kts | 278° |
| 2026-04-26 21:13 | 33.65993 | -101.73742 | 37775 ft | 394 kts | 278° |
| 2026-04-26 21:14 | 33.71015 | -101.99391 | 37737 ft | 396 kts | 278° |
| 2026-04-26 21:14 | 33.76016 | -102.25234 | 37703 ft | 397 kts | 278° |
| 2026-04-26 21:15 | 33.80958 | -102.51083 | 37662 ft | 397 kts | 277° |
| 2026-04-26 21:15 | 33.88559 | -102.91421 | 37603 ft | 397 kts | 277° |
| 2026-04-26 21:16 | 33.98152 | -103.43546 | 37615 ft | 396 kts | 276° |
| 2026-04-26 21:16 | 34.07404 | -103.95082 | 37559 ft | 396 kts | 276° |
| 2026-04-26 21:17 | 34.16533 | -104.47256 | 37564 ft | 397 kts | 275° |
| 2026-04-26 21:17 | 34.25481 | -104.99816 | 37628 ft | 401 kts | 275° |
| 2026-04-26 21:18 | 34.31717 | -105.37315 | 37722 ft | 404 kts | 275° |
| 2026-04-26 21:18 | 34.33577 | -105.48632 | 37698 ft | 404 kts | 275° |
| 2026-04-26 21:18 | 34.36715 | -105.75104 | 37706 ft | 384 kts | 264° |
| 2026-04-26 21:19 | 34.35988 | -106.00881 | 37711 ft | 383 kts | 264° |
| 2026-04-26 21:19 | 34.34745 | -106.51810 | 37636 ft | 383 kts | 264° |
| 2026-04-26 21:20 | 34.34874 | -107.04062 | 37695 ft | 391 kts | 268° |
| 2026-04-26 21:20 | 34.37119 | -107.56844 | 37695 ft | 393 kts | 268° |
| 2026-04-26 21:21 | 34.38583 | -107.95025 | 37676 ft | 395 kts | 268° |
| 2026-04-26 21:21 | 34.40403 | -108.47439 | 37697 ft | 391 kts | 267° |
| 2026-04-26 21:22 | 34.42002 | -108.99992 | 37719 ft | 389 kts | 267° |
| 2026-04-26 21:22 | 34.43345 | -109.25608 | 37933 ft | 393 kts | 271° |
| 2026-04-26 21:22 | 34.43694 | -109.28876 | 37902 ft | 394 kts | 271° |
| 2026-04-26 21:23 | 34.48175 | -109.75169 | 37765 ft | 393 kts | 271° |
| 2026-04-26 21:23 | 34.50290 | -109.98328 | 37897 ft | 392 kts | 271° |
| 2026-04-26 21:23 | 34.51906 | -110.16302 | 37898 ft | 393 kts | 271° |
| 2026-04-26 21:24 | 34.54225 | -110.42681 | 37815 ft | 394 kts | 271° |
| 2026-04-26 21:24 | 34.57097 | -110.76289 | 37838 ft | 397 kts | 271° |
| 2026-04-26 21:25 | 34.61516 | -111.30231 | 37918 ft | 405 kts | 270° |
| 2026-04-26 21:25 | 34.65624 | -111.83425 | 37925 ft | 406 kts | 270° |
| 2026-04-26 21:26 | 34.68534 | -112.23068 | 37902 ft | 407 kts | 270° |
| 2026-04-26 21:26 | 34.69972 | -112.50424 | 37934 ft | 403 kts | 263° |
| 2026-04-26 21:27 | 34.66851 | -112.77188 | 37863 ft | 401 kts | 259° |
| 2026-04-26 21:27 | 34.64112 | -113.00004 | 37827 ft | 403 kts | 259° |
| 2026-04-26 21:28 | 34.57437 | -113.54074 | 37874 ft | 406 kts | 259° |
| 2026-04-26 21:28 | 34.51835 | -114.03496 | 37831 ft | 408 kts | 260° |
| 2026-04-26 21:29 | 34.50791 | -114.10230 | 37850 ft | 406 kts | 255° |
| 2026-04-26 21:29 | 34.49327 | -114.16832 | 37863 ft | 405 kts | 254° |
| 2026-04-26 21:30 | 34.47860 | -114.23398 | 37877 ft | 405 kts | 254° |
| 2026-04-26 21:30 | 34.46438 | -114.29959 | 37882 ft | 404 kts | 255° |
| 2026-04-26 21:31 | 34.45022 | -114.36581 | 37879 ft | 404 kts | 255° |
| 2026-04-26 21:31 | 34.43630 | -114.43092 | 37875 ft | 403 kts | 255° |
| 2026-04-26 21:32 | 34.42214 | -114.49701 | 37871 ft | 403 kts | 255° |
| 2026-04-26 21:32 | 34.40800 | -114.56276 | 37848 ft | 403 kts | 255° |
| 2026-04-26 21:33 | 34.39385 | -114.62839 | 37848 ft | 403 kts | 255° |
| 2026-04-26 21:33 | 34.37965 | -114.69405 | 37841 ft | 403 kts | 255° |
| 2026-04-26 21:34 | 34.36544 | -114.75955 | 37848 ft | 403 kts | 254° |
| 2026-04-26 21:34 | 34.35117 | -114.82519 | 37849 ft | 402 kts | 254° |
| 2026-04-26 21:35 | 34.33695 | -114.89046 | 37857 ft | 402 kts | 254° |
| 2026-04-26 21:35 | 34.32256 | -114.95624 | 37846 ft | 403 kts | 254° |
| 2026-04-26 21:36 | 34.31062 | -115.01064 | 37858 ft | 403 kts | 254° |
| 2026-04-26 21:36 | 34.29378 | -115.08723 | 37852 ft | 403 kts | 254° |
| 2026-04-26 21:37 | 34.27938 | -115.15261 | 37848 ft | 402 kts | 254° |
| 2026-04-26 21:37 | 34.26492 | -115.21801 | 37853 ft | 402 kts | 254° |
| 2026-04-26 21:38 | 34.25088 | -115.28331 | 37867 ft | 401 kts | 255° |
| 2026-04-26 21:38 | 34.23700 | -115.34882 | 37856 ft | 402 kts | 255° |
| 2026-04-26 21:39 | 34.22314 | -115.41387 | 37851 ft | 401 kts | 255° |
| 2026-04-26 21:39 | 34.20918 | -115.47904 | 37846 ft | 400 kts | 255° |
| 2026-04-26 21:40 | 34.19523 | -115.54402 | 37847 ft | 400 kts | 255° |
| 2026-04-26 21:40 | 34.18118 | -115.60917 | 37852 ft | 401 kts | 255° |
| 2026-04-26 21:41 | 34.16709 | -115.67438 | 37863 ft | 402 kts | 255° |
| 2026-04-26 21:41 | 34.15751 | -115.74109 | 37864 ft | 404 kts | 262° |
| 2026-04-26 21:42 | 34.15194 | -115.80839 | 37881 ft | 404 kts | 262° |
| 2026-04-26 21:42 | 34.14588 | -115.87565 | 37895 ft | 404 kts | 261° |
| 2026-04-26 21:43 | 34.13937 | -115.94284 | 37906 ft | 404 kts | 261° |
| 2026-04-26 21:43 | 34.13270 | -116.01076 | 37925 ft | 404 kts | 261° |
| 2026-04-26 21:44 | 34.12612 | -116.07785 | 37534 ft | 406 kts | 261° |
| 2026-04-26 21:44 | 34.12287 | -116.11099 | 36858 ft | 388 kts | 261° |
| 2026-04-26 21:44 | 34.11972 | -116.14312 | 36173 ft | 386 kts | 261° |
| 2026-04-26 21:45 | 34.11652 | -116.17536 | 35396 ft | 387 kts | 261° |
| 2026-04-26 21:45 | 34.11331 | -116.20770 | 34570 ft | 390 kts | 261° |
| 2026-04-26 21:45 | 34.11005 | -116.24044 | 33631 ft | 394 kts | 261° |
| 2026-04-26 21:45 | 34.10675 | -116.27348 | 32666 ft | 400 kts | 261° |
| 2026-04-26 21:46 | 34.10340 | -116.30682 | 31877 ft | 407 kts | 261° |
| 2026-04-26 21:46 | 34.09980 | -116.34116 | 31269 ft | 413 kts | 261° |
| 2026-04-26 21:46 | 34.09608 | -116.37577 | 30751 ft | 416 kts | 261° |
| 2026-04-26 21:46 | 34.09239 | -116.40999 | 30221 ft | 418 kts | 261° |
| 2026-04-26 21:47 | 34.08858 | -116.44537 | 29650 ft | 419 kts | 261° |
| 2026-04-26 21:47 | 34.08485 | -116.47995 | 29073 ft | 417 kts | 261° |
| 2026-04-26 21:47 | 34.08115 | -116.51438 | 28549 ft | 411 kts | 261° |
| 2026-04-26 21:47 | 34.07753 | -116.54799 | 28047 ft | 402 kts | 261° |
| 2026-04-26 21:48 | 34.07395 | -116.58111 | 27558 ft | 394 kts | 262° |
| 2026-04-26 21:48 | 34.07062 | -116.61356 | 27180 ft | 384 kts | 262° |
| 2026-04-26 21:48 | 34.06766 | -116.64541 | 26656 ft | 379 kts | 263° |
| 2026-04-26 21:48 | 34.06483 | -116.67667 | 26154 ft | 374 kts | 263° |
| 2026-04-26 21:49 | 34.06202 | -116.70777 | 25693 ft | 369 kts | 263° |
| 2026-04-26 21:49 | 34.05922 | -116.73826 | 25239 ft | 365 kts | 263° |
| 2026-04-26 21:49 | 34.05640 | -116.76861 | 24797 ft | 361 kts | 263° |
| 2026-04-26 21:49 | 34.05360 | -116.79858 | 24361 ft | 358 kts | 263° |
| 2026-04-26 21:50 | 34.05082 | -116.82831 | 23949 ft | 356 kts | 263° |
| 2026-04-26 21:50 | 34.04896 | -116.84808 | 23662 ft | 355 kts | 263° |
| 2026-04-26 21:50 | 34.04521 | -116.88764 | 22984 ft | 354 kts | 263° |
| 2026-04-26 21:50 | 34.04187 | -116.91697 | 22529 ft | 351 kts | 262° |
| 2026-04-26 21:51 | 34.03804 | -116.94532 | 22101 ft | 348 kts | 261° |
| 2026-04-26 21:51 | 34.03408 | -116.97452 | 21667 ft | 344 kts | 262° |
| 2026-04-26 21:51 | 34.03037 | -117.00255 | 21261 ft | 343 kts | 262° |
| 2026-04-26 21:51 | 34.02661 | -117.03130 | 20842 ft | 342 kts | 262° |
| 2026-04-26 21:52 | 34.02319 | -117.05922 | 20430 ft | 342 kts | 263° |
| 2026-04-26 21:52 | 34.01986 | -117.08755 | 20010 ft | 341 kts | 263° |
| 2026-04-26 21:52 | 34.01658 | -117.11574 | 19591 ft | 339 kts | 263° |
| 2026-04-26 21:52 | 34.01326 | -117.14400 | 19174 ft | 337 kts | 263° |
| 2026-04-26 21:53 | 34.00997 | -117.17182 | 18770 ft | 334 kts | 263° |
| 2026-04-26 21:53 | 34.00667 | -117.19951 | 18334 ft | 333 kts | 263° |
| 2026-04-26 21:53 | 34.00337 | -117.22713 | 17856 ft | 332 kts | 263° |
| 2026-04-26 21:53 | 34.00013 | -117.25425 | 17415 ft | 330 kts | 263° |
| 2026-04-26 21:54 | 33.99680 | -117.28192 | 16998 ft | 328 kts | 263° |
| 2026-04-26 21:54 | 33.99359 | -117.30868 | 16593 ft | 326 kts | 263° |
| 2026-04-26 21:54 | 33.99038 | -117.33576 | 16187 ft | 325 kts | 263° |
| 2026-04-26 21:54 | 33.98725 | -117.36249 | 15787 ft | 324 kts | 263° |
| 2026-04-26 21:55 | 33.98409 | -117.38945 | 15382 ft | 323 kts | 263° |
| 2026-04-26 21:55 | 33.98094 | -117.41622 | 14986 ft | 322 kts | 263° |
| 2026-04-26 21:55 | 33.97780 | -117.44294 | 14591 ft | 321 kts | 263° |
| 2026-04-26 21:55 | 33.97571 | -117.46062 | 14322 ft | 320 kts | 263° |
| 2026-04-26 21:56 | 33.97313 | -117.48705 | 13923 ft | 316 kts | 270° |
| 2026-04-26 21:56 | 33.97749 | -117.52129 | 13432 ft | 309 kts | 283° |
| 2026-04-26 21:56 | 33.98232 | -117.54635 | 13038 ft | 306 kts | 283° |
| 2026-04-26 21:56 | 33.98547 | -117.56318 | 12769 ft | 303 kts | 282° |
| 2026-04-26 21:57 | 33.98996 | -117.58766 | 12397 ft | 300 kts | 282° |
| 2026-04-26 21:57 | 33.99431 | -117.61188 | 12032 ft | 297 kts | 282° |
| 2026-04-26 21:57 | 33.99865 | -117.63631 | 11664 ft | 294 kts | 282° |
| 2026-04-26 21:57 | 34.00290 | -117.66035 | 11303 ft | 292 kts | 282° |
| 2026-04-26 21:58 | 34.00649 | -117.68429 | 10944 ft | 286 kts | 274° |
| 2026-04-26 21:58 | 34.00501 | -117.70811 | 10636 ft | 284 kts | 263° |
| 2026-04-26 21:58 | 34.00240 | -117.73151 | 10313 ft | 281 kts | 264° |
| 2026-04-26 21:58 | 34.00000 | -117.75465 | 9980 ft | 278 kts | 264° |
| 2026-04-26 21:59 | 33.99770 | -117.77740 | 9743 ft | 263 kts | 264° |
| 2026-04-26 21:59 | 33.99561 | -117.79838 | 9233 ft | 248 kts | 264° |
| 2026-04-26 21:59 | 33.99357 | -117.81908 | 8864 ft | 241 kts | 264° |
| 2026-04-26 21:59 | 33.99161 | -117.83933 | 8581 ft | 248 kts | 264° |
| 2026-04-26 22:00 | 33.98960 | -117.86009 | 8243 ft | 250 kts | 264° |
| 2026-04-26 22:00 | 33.98757 | -117.88094 | 7911 ft | 250 kts | 264° |
| 2026-04-26 22:00 | 33.98554 | -117.90170 | 7602 ft | 250 kts | 264° |
| 2026-04-26 22:00 | 33.98349 | -117.92258 | 7297 ft | 250 kts | 264° |
| 2026-04-26 22:01 | 33.98142 | -117.94342 | 6960 ft | 253 kts | 264° |
| 2026-04-26 22:01 | 33.97936 | -117.96435 | 6662 ft | 254 kts | 264° |
| 2026-04-26 22:01 | 33.97728 | -117.98559 | 6333 ft | 256 kts | 263° |
| 2026-04-26 22:01 | 33.97518 | -118.00703 | 5983 ft | 256 kts | 264° |
| 2026-04-26 22:02 | 33.97324 | -118.02842 | 5656 ft | 257 kts | 264° |
| 2026-04-26 22:02 | 33.97125 | -118.04944 | 5315 ft | 242 kts | 264° |
| 2026-04-26 22:02 | 33.96929 | -118.06905 | 5022 ft | 234 kts | 263° |
| 2026-04-26 22:02 | 33.96740 | -118.08769 | 4767 ft | 247 kts | 264° |
| 2026-04-26 22:03 | 33.96529 | -118.10839 | 4489 ft | 251 kts | 263° |
| 2026-04-26 22:03 | 33.96293 | -118.12905 | 4184 ft | 244 kts | 262° |
| 2026-04-26 22:03 | 33.96096 | -118.14887 | 3967 ft | 227 kts | 264° |
| 2026-04-26 22:03 | 33.95929 | -118.16708 | 3657 ft | 212 kts | 263° |
| 2026-04-26 22:04 | 33.95763 | -118.18399 | 3406 ft | 197 kts | 262° |
| 2026-04-26 22:04 | 33.95602 | -118.19966 | 3157 ft | 180 kts | 263° |
| 2026-04-26 22:04 | 33.95454 | -118.21411 | 2977 ft | 169 kts | 263° |
| 2026-04-26 22:04 | 33.95308 | -118.22838 | 2745 ft | 175 kts | 262° |
| 2026-04-26 22:05 | 33.95157 | -118.24314 | 2485 ft | 178 kts | 263° |
| 2026-04-26 22:05 | 33.95011 | -118.25752 | 2247 ft | 166 kts | 263° |
| 2026-04-26 22:05 | 33.94878 | -118.27072 | 2022 ft | 152 kts | 262° |
| 2026-04-26 22:05 | 33.94757 | -118.28259 | 1804 ft | 136 kts | 262° |
| 2026-04-26 22:06 | 33.94648 | -118.29311 | 1634 ft | 119 kts | 262° |
| 2026-04-26 22:06 | 33.94552 | -118.30258 | 1537 ft | 123 kts | 263° |
| 2026-04-26 22:06 | 33.94442 | -118.31344 | 1354 ft | 131 kts | 263° |
| 2026-04-26 22:06 | 33.94333 | -118.32409 | 1129 ft | 123 kts | 260° |
| 2026-04-26 22:07 | 33.94228 | -118.33388 | 885 ft | 122 kts | 263° |
| 2026-04-26 22:07 | 33.94122 | -118.34415 | 797 ft | 128 kts | 265° |
| 2026-04-26 22:07 | 33.94021 | -118.35519 | 614 ft | 132 kts | 262° |
| 2026-04-26 22:07 | 33.93920 | -118.36578 | 390 ft | 122 kts | 262° |
| 2026-04-26 22:08 | 33.93818 | -118.37562 | 264 ft | 122 kts | 259° |
| 2026-04-26 22:08 | 33.93709 | -118.38617 | 144 ft | 128 kts | 258° |
| 2026-04-26 22:08 | 33.93597 | -118.39616 | 112 ft | 105 kts | 263° |
| 2026-04-26 22:08 | 33.93529 | -118.40301 | 115 ft | 61 kts | 263° |
| 2026-04-26 22:09 | 33.93491 | -118.40661 | 115 ft | 37 kts | 263° |
| 2026-04-26 22:09 | 33.93485 | -118.40941 | 118 ft | 31 kts | 272° |
| 2026-04-26 22:09 | 33.93518 | -118.41116 | 112 ft | 17 kts | 290° |
| 2026-04-26 22:09 | 33.93540 | -118.41202 | 109 ft | 0 kts | 278° |
| 2026-04-26 22:11 | 33.93541 | -118.41209 | 110 ft | 3 kts | 280° |
| 2026-04-26 22:11 | 33.93565 | -118.41244 | 108 ft | 8 kts | 329° |
| 2026-04-26 22:11 | 33.93618 | -118.41262 | 113 ft | 8 kts | 351° |
| 2026-04-26 22:11 | 33.93692 | -118.41274 | 111 ft | 15 kts | 353° |
| 2026-04-26 22:12 | 33.93756 | -118.41202 | 108 ft | 17 kts | 83° |
| 2026-04-26 22:12 | 33.93769 | -118.41063 | 107 ft | 10 kts | 82° |
| 2026-04-26 22:12 | 33.93776 | -118.40997 | 106 ft | 7 kts | 82° |
| 2026-04-26 22:12 | 33.93795 | -118.40937 | 107 ft | 9 kts | 45° |
| 2026-04-26 22:13 | 33.93857 | -118.40951 | 104 ft | 8 kts | 294° |
| 2026-04-26 22:13 | 33.93857 | -118.41023 | 102 ft | 9 kts | 263° |
| 2026-04-26 22:13 | 33.93850 | -118.41103 | 102 ft | 10 kts | 271° |
| 2026-04-26 22:13 | 33.93902 | -118.41162 | 102 ft | 13 kts | 342° |
| 2026-04-26 22:14 | 33.93989 | -118.41178 | 101 ft | 11 kts | 352° |
| 2026-04-26 22:14 | 33.94054 | -118.41189 | 101 ft | 2 kts | 352° |
| 2026-04-26 22:14 | 33.94075 | -118.41180 | 101 ft | 5 kts | 32° |
| 2026-04-26 22:14 | 33.94094 | -118.41136 | 102 ft | 6 kts | 79° |
| 2026-04-26 22:15 | 33.94097 | -118.41107 | 103 ft | 3 kts | 83° |
| 2026-04-26 22:15 | 33.94099 | -118.41088 | 101 ft | 2 kts | 83° |
| 2026-04-26 22:15 | 33.94099 | -118.41086 | 101 ft | 0 kts | 83° |